Time;durP1;ratioP1;P1;durP2;ratioP2;P2;SDS_P1;SDS_P2;PMS_P1;PMS_P2;Temp;Humidity;BMP_temperature;BMP_pressure;BME280_temperature;BME280_humidity;BME280_pressure;Samples;Min_cycle;Max_cycle;Signal;HPM_P1;HPM_P2
2022/12/30 00:02:15;;;;;;;5.10;2.00;;;23.90;44.80;;;;;;5005529;28;20871;-46
2022/12/30 00:04:46;;;;;;;7.38;2.13;;;23.90;44.70;;;;;;4996341;28;20200;-51
2022/12/30 00:07:18;;;;;;;5.80;1.90;;;23.90;44.70;;;;;;5012513;28;20196;-53
2022/12/30 00:09:50;;;;;;;5.78;2.05;;;24.00;44.80;;;;;;4994771;28;20193;-53
2022/12/30 00:35:11;;;;;;;4.82;1.75;;;24.00;45.00;;;;;;4956686;28;20205;-46
2022/12/30 00:37:41;;;;;;;7.47;2.00;;;24.10;45.00;;;;;;4992125;28;20289;-45
2022/12/30 00:40:13;;;;;;;3.72;1.60;;;24.10;45.10;;;;;;4993458;28;20194;-47
2022/12/30 00:45:32;;;;;;;4.53;1.63;;;24.10;45.10;;;;;;5012077;28;20232;-46
2022/12/30 00:56:23;;;;;;;5.25;1.80;;;24.10;45.30;;;;;;4992399;28;20201;-39
2022/12/30 00:58:55;;;;;;;3.55;1.60;;;24.10;45.30;;;;;;4998024;28;20225;-44
2022/12/30 01:01:26;;;;;;;4.70;1.50;;;24.10;45.40;;;;;;4991428;28;20224;-39
2022/12/30 01:03:57;;;;;;;3.70;1.35;;;24.10;45.40;;;;;;4972529;28;20182;-39
2022/12/30 01:06:27;;;;;;;3.20;1.20;;;24.20;45.60;;;;;;4972107;28;20582;-42
2022/12/30 01:08:58;;;;;;;2.50;1.45;;;24.20;45.60;;;;;;4972901;28;20270;-40
2022/12/30 01:11:29;;;;;;;6.07;1.80;;;24.20;45.60;;;;;;4973313;28;20335;-38
2022/12/30 01:14:02;;;;;;;2.88;1.27;;;24.20;45.60;;;;;;4991401;28;20196;-43
2022/12/30 01:16:32;;;;;;;3.95;1.58;;;24.20;45.60;;;;;;4991454;28;20205;-39
2022/12/30 01:19:03;;;;;;;2.03;1.27;;;24.20;45.60;;;;;;4991332;28;20198;-46
2022/12/30 01:21:34;;;;;;;3.08;1.33;;;24.20;45.60;;;;;;4988797;28;20267;-41
2022/12/30 01:24:05;;;;;;;3.03;1.40;;;24.20;45.60;;;;;;4991765;28;20205;-40
2022/12/30 01:26:35;;;;;;;2.53;1.13;;;24.20;45.60;;;;;;4991529;28;20198;-39
2022/12/30 01:29:08;;;;;;;4.45;1.23;;;24.30;45.60;;;;;;4983086;28;20195;-42
2022/12/30 01:31:39;;;;;;;3.30;1.55;;;24.30;45.60;;;;;;4982624;28;20221;-43
2022/12/30 01:34:09;;;;;;;3.60;1.48;;;24.30;45.70;;;;;;4990967;28;20197;-42
2022/12/30 01:36:41;;;;;;;2.78;1.10;;;24.30;45.70;;;;;;4990664;28;20213;-41
2022/12/30 01:39:12;;;;;;;3.28;1.40;;;24.30;45.70;;;;;;4991307;28;20202;-41
2022/12/30 01:41:44;;;;;;;3.53;1.17;;;24.30;45.70;;;;;;4991307;28;20198;-45
2022/12/30 01:45:02;;;;;;;3.78;1.42;;;24.30;45.70;;;;;;4987839;28;20201;-42
2022/12/30 01:47:46;;;;;;;4.97;1.67;;;24.30;45.70;;;;;;4911135;29;20197;-42
2022/12/30 01:50:26;;;;;;;3.90;1.63;;;24.40;45.80;;;;;;4966621;28;20189;-42
2022/12/30 01:53:03;;;;;;;4.95;1.90;;;24.40;45.90;;;;;;4972140;28;20308;-40
2022/12/30 01:55:39;;;;;;;5.35;1.90;;;24.40;45.90;;;;;;4971553;28;20198;-42
2022/12/30 01:58:14;;;;;;;5.43;1.80;;;24.40;45.90;;;;;;4971843;28;20202;-43
2022/12/30 02:00:45;;;;;;;2.83;1.52;;;24.40;46.00;;;;;;4971840;28;20197;-40
2022/12/30 02:03:18;;;;;;;5.78;1.63;;;24.40;46.00;;;;;;4971357;28;20217;-40
2022/12/30 02:05:50;;;;;;;3.58;1.55;;;24.40;46.00;;;;;;4970773;28;20659;-41
2022/12/30 02:08:23;;;;;;;2.22;1.40;;;24.40;46.10;;;;;;4972032;28;20292;-40
2022/12/30 02:10:56;;;;;;;3.15;1.48;;;24.40;46.00;;;;;;4990909;28;20197;-49
2022/12/30 02:13:27;;;;;;;2.88;1.77;;;24.40;46.00;;;;;;4990534;28;20237;-49
2022/12/30 02:16:24;;;;;;;3.45;1.60;;;24.40;46.00;;;;;;4970903;28;20198;-46
2022/12/30 02:19:17;;;;;;;2.33;1.60;;;24.40;46.00;;;;;;4966503;28;20802;-41
2022/12/30 02:22:03;;;;;;;3.97;1.65;;;24.50;46.10;;;;;;4971009;28;20194;-40
2022/12/30 02:25:07;;;;;;;2.60;1.60;;;24.50;46.00;;;;;;4971682;28;20202;-44
2022/12/30 02:28:24;;;;;;;2.55;1.45;;;24.50;46.10;;;;;;4969196;28;20493;-42
2022/12/30 02:31:29;;;;;;;2.05;1.35;;;24.50;46.00;;;;;;4971341;28;20194;-43
2022/12/30 02:34:10;;;;;;;3.58;1.42;;;24.50;46.00;;;;;;4967905;28;20203;-41
2022/12/30 02:36:48;;;;;;;4.43;1.63;;;24.50;46.10;;;;;;4970926;28;20204;-44
2022/12/30 02:39:31;;;;;;;2.70;1.52;;;24.50;46.30;;;;;;4971427;28;20244;-44
2022/12/30 02:44:59;;;;;;;4.30;1.80;;;24.50;46.20;;;;;;4990468;28;20232;-44
2022/12/30 02:47:37;;;;;;;3.55;1.63;;;24.50;46.20;;;;;;4989258;28;20208;-46
2022/12/30 02:53:03;;;;;;;2.88;1.42;;;24.50;46.20;;;;;;4957436;28;20720;-40
2022/12/30 02:55:33;;;;;;;3.60;1.55;;;24.50;46.20;;;;;;4990888;28;20205;-44
2022/12/30 02:58:04;;;;;;;5.40;1.85;;;24.50;46.20;;;;;;4990898;28;20197;-44
2022/12/30 03:04:00;;;;;;;4.63;1.75;;;24.50;46.30;;;;;;4957957;28;20308;-42
2022/12/30 03:06:48;;;;;;;2.95;1.27;;;24.50;46.30;;;;;;4990871;28;20194;-42
2022/12/30 03:09:28;;;;;;;2.58;1.30;;;24.50;46.20;;;;;;4991380;28;20975;-42
2022/12/30 03:12:05;;;;;;;4.22;1.58;;;24.50;46.20;;;;;;4994533;28;20236;-42
2022/12/30 03:14:41;;;;;;;4.25;1.40;;;24.50;46.20;;;;;;4994095;28;20567;-47
2022/12/30 03:17:15;;;;;;;2.45;1.50;;;24.50;46.20;;;;;;4994537;28;20568;-44
2022/12/30 03:19:52;;;;;;;4.20;1.63;;;24.50;46.30;;;;;;4994820;28;20232;-43
2022/12/30 03:27:58;;;;;;;2.97;1.30;;;24.50;46.30;;;;;;4990546;28;20301;-44
2022/12/30 03:30:30;;;;;;;3.90;1.80;;;24.50;46.20;;;;;;4993846;28;20208;-42
2022/12/30 03:33:01;;;;;;;4.53;1.63;;;24.50;46.30;;;;;;4994162;28;20689;-42
2022/12/30 03:35:37;;;;;;;2.65;1.40;;;24.50;46.30;;;;;;4994199;28;20197;-44
2022/12/30 03:38:09;;;;;;;3.58;1.60;;;24.50;46.30;;;;;;4994406;28;20197;-43
2022/12/30 03:40:43;;;;;;;2.05;1.17;;;24.50;46.30;;;;;;4991495;28;20194;-45
2022/12/30 03:43:14;;;;;;;3.25;1.52;;;24.50;46.30;;;;;;4994307;28;20243;-45
2022/12/30 03:45:45;;;;;;;1.85;1.25;;;24.50;46.30;;;;;;4994343;28;20202;-42
2022/12/30 03:48:15;;;;;;;4.35;1.55;;;24.50;46.30;;;;;;4993864;28;20193;-42
2022/12/30 03:50:48;;;;;;;2.92;1.35;;;24.50;46.30;;;;;;4994031;28;20197;-42
2022/12/30 03:53:19;;;;;;;2.92;1.40;;;24.50;46.30;;;;;;4994608;28;20233;-41
2022/12/30 03:55:50;;;;;;;3.25;1.55;;;24.60;46.30;;;;;;4993699;28;20189;-43
2022/12/30 03:58:21;;;;;;;4.05;1.42;;;24.50;46.30;;;;;;4994073;28;20256;-44
2022/12/30 04:00:53;;;;;;;3.45;1.33;;;24.50;46.30;;;;;;4993831;28;20201;-44
2022/12/30 04:03:24;;;;;;;2.22;1.30;;;24.50;46.20;;;;;;4993762;28;20218;-40
2022/12/30 04:05:59;;;;;;;3.67;1.48;;;24.60;46.30;;;;;;4993937;28;20205;-44
2022/12/30 04:08:29;;;;;;;2.65;1.33;;;24.50;46.30;;;;;;4993839;28;20196;-41
2022/12/30 04:11:00;;;;;;;2.15;1.20;;;24.50;46.20;;;;;;4993412;28;20204;-45
2022/12/30 04:13:31;;;;;;;2.30;1.30;;;24.50;46.30;;;;;;4993227;28;20256;-45
2022/12/30 04:16:02;;;;;;;3.30;1.30;;;24.50;46.20;;;;;;4993603;28;20684;-43
2022/12/30 04:18:33;;;;;;;3.45;1.60;;;24.50;46.20;;;;;;4993584;28;20197;-44
2022/12/30 04:21:05;;;;;;;2.85;1.27;;;24.50;46.20;;;;;;4992544;28;20198;-41
2022/12/30 04:23:36;;;;;;;2.85;1.20;;;24.50;46.20;;;;;;4993556;28;20229;-40
2022/12/30 04:26:07;;;;;;;1.83;0.95;;;24.50;46.20;;;;;;4993523;28;20201;-43
2022/12/30 04:28:38;;;;;;;2.78;1.30;;;24.50;46.20;;;;;;4993261;28;20292;-44
2022/12/30 04:31:09;;;;;;;2.63;1.27;;;24.50;46.20;;;;;;4993059;28;20202;-41
2022/12/30 04:33:40;;;;;;;2.22;1.27;;;24.50;46.20;;;;;;4993313;28;20229;-39
2022/12/30 04:36:13;;;;;;;2.85;1.25;;;24.50;46.20;;;;;;4993461;28;20204;-40
2022/12/30 04:38:43;;;;;;;2.85;1.38;;;24.50;46.30;;;;;;4987616;28;20657;-39
2022/12/30 04:41:14;;;;;;;3.55;1.48;;;24.50;46.30;;;;;;4975612;28;20202;-44
2022/12/30 04:43:45;;;;;;;3.42;1.10;;;24.50;46.30;;;;;;4982507;28;20695;-40
2022/12/30 04:46:16;;;;;;;2.38;1.30;;;24.50;46.20;;;;;;4988733;28;20423;-41
2022/12/30 04:48:46;;;;;;;1.65;1.10;;;24.50;46.20;;;;;;4991746;28;20202;-43
2022/12/30 04:51:19;;;;;;;2.47;1.42;;;24.50;46.30;;;;;;4977107;28;20202;-48
2022/12/30 04:53:50;;;;;;;2.53;1.10;;;24.50;46.30;;;;;;4980009;28;20225;-43
2022/12/30 04:56:20;;;;;;;1.58;0.90;;;24.50;46.30;;;;;;4992133;28;20197;-45
2022/12/30 04:58:51;;;;;;;2.72;1.10;;;24.50;46.30;;;;;;4991202;28;20197;-43
2022/12/30 05:01:22;;;;;;;2.05;0.90;;;24.40;46.20;;;;;;4991931;28;20190;-42
2022/12/30 05:03:53;;;;;;;2.13;1.15;;;24.40;46.20;;;;;;4991922;28;20232;-44
2022/12/30 05:06:25;;;;;;;2.50;1.42;;;24.40;46.20;;;;;;4991348;28;20201;-43
2022/12/30 05:08:56;;;;;;;1.55;0.93;;;24.50;46.30;;;;;;4991998;28;20208;-44
2022/12/30 05:11:27;;;;;;;2.33;1.08;;;24.40;46.20;;;;;;4991367;28;20189;-47
2022/12/30 05:13:57;;;;;;;3.05;1.45;;;24.50;46.30;;;;;;4972175;28;20233;-46
2022/12/30 05:16:28;;;;;;;2.50;1.33;;;24.40;46.30;;;;;;4971635;28;20201;-42
2022/12/30 05:18:58;;;;;;;2.17;1.00;;;24.40;46.30;;;;;;4971628;28;20916;-45
2022/12/30 05:21:31;;;;;;;2.92;1.10;;;24.40;46.40;;;;;;4972001;28;20205;-47
2022/12/30 05:26:48;;;;;;;2.08;1.10;;;24.40;46.40;;;;;;4972656;28;20278;-44
2022/12/30 05:29:19;;;;;;;3.45;1.30;;;24.40;46.40;;;;;;4971392;28;20206;-48
2022/12/30 05:31:50;;;;;;;2.80;1.13;;;24.40;46.40;;;;;;4973546;28;20694;-46
2022/12/30 05:34:20;;;;;;;2.45;1.25;;;24.40;47.00;;;;;;4990767;28;20240;-48
2022/12/30 05:36:53;;;;;;;2.17;1.10;;;24.40;46.40;;;;;;4973446;28;20225;-44
2022/12/30 05:39:23;;;;;;;2.33;1.10;;;24.40;46.40;;;;;;4971940;28;20202;-48
2022/12/30 05:41:54;;;;;;;3.05;1.30;;;24.40;46.50;;;;;;4975385;28;20198;-42
2022/12/30 05:44:25;;;;;;;2.38;1.02;;;24.40;46.50;;;;;;4990868;28;20202;-39
2022/12/30 05:46:56;;;;;;;2.42;1.08;;;24.30;46.50;;;;;;4990493;28;20200;-48
2022/12/30 05:49:27;;;;;;;2.97;1.20;;;24.30;46.50;;;;;;4987917;28;20783;-46
2022/12/30 05:51:59;;;;;;;3.20;1.02;;;24.30;46.50;;;;;;4990967;28;20197;-46
2022/12/30 05:54:30;;;;;;;2.75;1.10;;;24.30;46.60;;;;;;4991278;28;20245;-43
2022/12/30 05:57:01;;;;;;;2.35;1.00;;;24.30;46.60;;;;;;4989960;28;20201;-44
2022/12/30 05:59:31;;;;;;;2.53;1.20;;;24.30;46.60;;;;;;4990878;28;20209;-46
2022/12/30 06:02:02;;;;;;;2.40;1.13;;;24.30;46.60;;;;;;4990419;28;20674;-48
2022/12/30 06:04:33;;;;;;;4.85;1.40;;;24.20;46.60;;;;;;4990456;28;20197;-42
2022/12/30 06:07:05;;;;;;;2.30;1.30;;;24.30;46.70;;;;;;4972836;28;20197;-47
2022/12/30 06:09:36;;;;;;;3.03;1.20;;;24.30;46.70;;;;;;4970599;28;20225;-50
2022/12/30 06:12:07;;;;;;;1.98;0.90;;;24.20;46.60;;;;;;4975835;28;20201;-46
2022/12/30 06:14:38;;;;;;;1.35;1.00;;;24.30;46.70;;;;;;4989871;28;20225;-48
2022/12/30 06:17:08;;;;;;;2.60;0.93;;;24.20;46.60;;;;;;4990092;28;20197;-50
2022/12/30 06:19:39;;;;;;;2.70;1.13;;;24.20;46.60;;;;;;4986267;28;20186;-47
2022/12/30 06:22:11;;;;;;;3.20;1.05;;;24.20;46.70;;;;;;4971226;28;20226;-47
2022/12/30 06:24:42;;;;;;;2.40;1.05;;;24.20;46.70;;;;;;4969835;28;20666;-46
2022/12/30 06:27:13;;;;;;;2.13;1.10;;;24.20;46.70;;;;;;4971103;28;20201;-45
2022/12/30 06:29:44;;;;;;;2.15;1.02;;;24.20;46.80;;;;;;4971570;28;20565;-46
2022/12/30 06:32:14;;;;;;;1.98;1.02;;;24.20;46.80;;;;;;4971845;28;20218;-43
2022/12/30 06:34:45;;;;;;;2.05;0.82;;;24.10;46.70;;;;;;4971539;28;20221;-45
2022/12/30 06:37:17;;;;;;;1.80;0.95;;;24.10;46.80;;;;;;4990485;28;20201;-46
2022/12/30 06:39:48;;;;;;;1.35;0.70;;;24.10;46.90;;;;;;4991422;28;20193;-40
2022/12/30 06:42:19;;;;;;;2.03;1.10;;;24.10;46.80;;;;;;4990830;28;20587;-44
2022/12/30 06:44:49;;;;;;;1.67;0.88;;;24.10;46.90;;;;;;4991863;28;20202;-40
2022/12/30 06:47:20;;;;;;;1.83;1.02;;;24.10;46.90;;;;;;4994924;28;20213;-42
2022/12/30 06:49:51;;;;;;;1.83;1.20;;;24.00;46.80;;;;;;4995250;28;20193;-39
2022/12/30 06:52:23;;;;;;;2.70;0.90;;;24.00;46.80;;;;;;4995036;28;20229;-46
2022/12/30 06:54:54;;;;;;;2.00;1.17;;;24.00;46.90;;;;;;4994744;28;20581;-44
2022/12/30 06:57:25;;;;;;;1.52;0.90;;;24.00;46.90;;;;;;4995266;28;20201;-43
2022/12/30 06:59:55;;;;;;;2.17;1.00;;;24.00;46.90;;;;;;4995268;28;20209;-42
2022/12/30 07:02:26;;;;;;;3.03;1.15;;;24.00;47.00;;;;;;4995094;28;20217;-42
2022/12/30 07:04:57;;;;;;;1.35;0.82;;;24.00;47.00;;;;;;4995009;28;20201;-40
2022/12/30 07:07:29;;;;;;;1.42;0.82;;;23.90;47.00;;;;;;4994538;28;20678;-45
2022/12/30 07:10:00;;;;;;;3.17;1.27;;;23.90;47.10;;;;;;4993800;28;20202;-40
2022/12/30 07:12:31;;;;;;;2.97;1.00;;;23.90;47.10;;;;;;4994475;28;20720;-42
2022/12/30 07:15:01;;;;;;;1.63;0.93;;;23.90;47.10;;;;;;4994591;28;20222;-44
2022/12/30 07:17:32;;;;;;;2.38;1.15;;;23.90;47.10;;;;;;4991255;28;20194;-39
2022/12/30 07:20:03;;;;;;;2.08;0.88;;;23.80;47.10;;;;;;4993876;28;20654;-44
2022/12/30 07:22:35;;;;;;;2.38;1.15;;;23.80;47.00;;;;;;4993873;28;20217;-48
2022/12/30 07:25:06;;;;;;;1.80;1.08;;;23.80;47.00;;;;;;4994491;28;20201;-44
2022/12/30 07:27:37;;;;;;;2.13;1.15;;;23.80;47.10;;;;;;4994404;28;20658;-41
2022/12/30 07:30:09;;;;;;;1.95;1.05;;;23.80;47.00;;;;;;4994242;28;20204;-41
2022/12/30 07:32:39;;;;;;;2.35;0.80;;;23.80;47.00;;;;;;4994114;28;20236;-41
2022/12/30 07:35:11;;;;;;;1.90;0.95;;;23.80;47.10;;;;;;4993421;28;20242;-47
2022/12/30 07:37:43;;;;;;;1.63;0.68;;;23.80;47.10;;;;;;4993518;28;20193;-43
2022/12/30 07:40:14;;;;;;;3.15;0.90;;;23.80;47.20;;;;;;4992698;28;20206;-46
2022/12/30 07:42:45;;;;;;;1.55;1.10;;;23.80;47.20;;;;;;4992630;28;20225;-47
2022/12/30 07:45:16;;;;;;;1.80;0.90;;;23.70;47.30;;;;;;4994210;28;20216;-44
2022/12/30 07:47:46;;;;;;;2.45;0.93;;;23.70;47.20;;;;;;4994088;28;20201;-45
2022/12/30 07:50:17;;;;;;;1.60;0.90;;;23.70;47.30;;;;;;4993422;28;20221;-47
2022/12/30 07:52:50;;;;;;;1.83;0.93;;;23.70;47.30;;;;;;4993906;28;20588;-44
2022/12/30 07:55:20;;;;;;;2.10;0.98;;;23.70;47.30;;;;;;4991310;28;20243;-44
2022/12/30 07:57:51;;;;;;;1.40;0.82;;;23.70;47.30;;;;;;4993495;28;20197;-42
2022/12/30 08:00:22;;;;;;;3.63;1.17;;;23.70;47.20;;;;;;4990010;28;20202;-46
2022/12/30 08:02:53;;;;;;;2.05;0.95;;;23.70;47.30;;;;;;4988852;28;20209;-41
2022/12/30 08:05:23;;;;;;;2.30;1.10;;;23.70;47.30;;;;;;4975569;28;20210;-42
2022/12/30 08:07:57;;;;;;;2.97;1.08;;;23.70;47.40;;;;;;4985249;28;20190;-39
2022/12/30 08:10:28;;;;;;;3.38;1.08;;;23.60;47.40;;;;;;4989409;28;20195;-44
2022/12/30 08:12:59;;;;;;;2.47;1.00;;;23.60;47.40;;;;;;4985840;28;20222;-42
2022/12/30 08:15:29;;;;;;;2.22;1.30;;;23.60;47.50;;;;;;4992808;28;20697;-44
2022/12/30 08:18:00;;;;;;;3.40;1.00;;;23.60;47.50;;;;;;4992698;28;20228;-43
2022/12/30 08:20:31;;;;;;;4.30;1.20;;;23.60;47.50;;;;;;4992712;28;20204;-42
2022/12/30 08:23:03;;;;;;;2.10;0.93;;;23.60;48.10;;;;;;4991825;28;20669;-41
2022/12/30 08:25:34;;;;;;;1.92;1.00;;;23.50;47.60;;;;;;4991690;28;20198;-40
2022/12/30 08:28:05;;;;;;;2.03;1.00;;;23.50;47.50;;;;;;4992857;28;20197;-41
2022/12/30 08:30:35;;;;;;;2.40;0.98;;;23.50;47.50;;;;;;4992177;28;20197;-39
2022/12/30 08:33:06;;;;;;;2.10;1.00;;;23.50;47.50;;;;;;4992629;28;20686;-47
2022/12/30 08:35:37;;;;;;;2.28;0.90;;;23.50;47.60;;;;;;4992732;28;20229;-41
2022/12/30 08:38:09;;;;;;;1.98;0.90;;;23.50;47.60;;;;;;4992090;28;20212;-39
2022/12/30 08:40:40;;;;;;;2.85;1.10;;;23.50;47.50;;;;;;4992385;28;20205;-46
2022/12/30 08:43:12;;;;;;;1.92;0.98;;;23.50;47.60;;;;;;4991326;28;20218;-40
2022/12/30 08:45:42;;;;;;;3.08;1.08;;;23.50;47.60;;;;;;4989335;28;20285;-44
2022/12/30 08:48:13;;;;;;;3.25;1.02;;;23.40;47.50;;;;;;4973105;28;20198;-44
2022/12/30 08:50:45;;;;;;;3.10;1.20;;;23.40;47.60;;;;;;4972985;28;20194;-42
2022/12/30 08:53:17;;;;;;;2.08;1.00;;;23.40;48.20;;;;;;4972425;28;20230;-43
2022/12/30 08:55:48;;;;;;;2.58;1.00;;;23.40;47.60;;;;;;4975427;28;20198;-41
2022/12/30 08:58:19;;;;;;;3.50;1.00;;;23.40;47.60;;;;;;4977406;28;20202;-42
2022/12/30 09:00:50;;;;;;;2.65;1.25;;;23.40;47.60;;;;;;4991109;28;20186;-44
2022/12/30 09:03:20;;;;;;;2.33;1.10;;;23.30;47.70;;;;;;4992317;28;20268;-39
2022/12/30 09:05:54;;;;;;;2.50;1.10;;;23.30;47.60;;;;;;4991543;28;20619;-42
2022/12/30 09:08:27;;;;;;;1.95;0.90;;;23.30;47.70;;;;;;4991879;28;20201;-40
2022/12/30 09:11:02;;;;;;;1.88;0.80;;;23.30;47.70;;;;;;4991564;28;20186;-41
2022/12/30 09:13:36;;;;;;;2.70;1.02;;;23.30;47.70;;;;;;4991994;28;20602;-49
2022/12/30 09:16:07;;;;;;;2.50;1.30;;;23.30;47.70;;;;;;4991062;28;20195;-41
2022/12/30 09:18:38;;;;;;;2.33;1.00;;;23.30;47.70;;;;;;4991655;28;20194;-42
2022/12/30 09:21:09;;;;;;;1.45;0.90;;;23.30;47.70;;;;;;4991321;28;20193;-45
2022/12/30 09:23:42;;;;;;;3.08;1.17;;;23.30;47.70;;;;;;4987633;28;20213;-44
2022/12/30 09:26:18;;;;;;;3.13;1.08;;;23.30;47.70;;;;;;4991121;28;20201;-39
2022/12/30 09:28:49;;;;;;;1.65;0.93;;;23.20;47.60;;;;;;4989694;28;20689;-38
2022/12/30 09:31:20;;;;;;;2.88;1.23;;;23.20;47.60;;;;;;4990879;28;20655;-40
2022/12/30 09:33:51;;;;;;;1.83;1.00;;;23.20;47.70;;;;;;4991193;28;20221;-43
2022/12/30 09:36:22;;;;;;;2.05;1.00;;;23.20;47.70;;;;;;4990682;28;20290;-40
2022/12/30 09:38:54;;;;;;;1.98;1.00;;;23.20;47.70;;;;;;4990772;28;20201;-43
2022/12/30 09:44:37;;;;;;;2.10;1.10;;;23.10;47.70;;;;;;4971374;28;20799;-39
2022/12/30 09:47:16;;;;;;;1.45;0.90;;;23.10;47.70;;;;;;4982694;28;20708;-38
2022/12/30 09:49:49;;;;;;;2.58;1.13;;;23.10;47.70;;;;;;4988857;28;20197;-38
2022/12/30 09:52:26;;;;;;;3.20;1.17;;;23.00;47.70;;;;;;4990908;28;20205;-42
2022/12/30 09:55:05;;;;;;;1.65;1.00;;;23.10;47.80;;;;;;4991494;28;20240;-40
2022/12/30 09:57:39;;;;;;;1.75;0.95;;;23.00;47.70;;;;;;4971799;28;20562;-38
2022/12/30 10:00:15;;;;;;;2.15;1.20;;;23.10;47.80;;;;;;4971361;28;20198;-39
2022/12/30 10:02:58;;;;;;;1.55;0.95;;;23.00;47.70;;;;;;4971584;28;20213;-40
2022/12/30 10:05:51;;;;;;;2.03;1.10;;;23.00;47.70;;;;;;4981054;28;20208;-42
2022/12/30 10:08:35;;;;;;;2.88;1.10;;;23.00;47.70;;;;;;4990347;28;20213;-44
2022/12/30 10:11:26;;;;;;;2.28;1.05;;;23.00;47.60;;;;;;4990651;28;20574;-38
2022/12/30 10:14:08;;;;;;;2.58;0.82;;;23.00;47.60;;;;;;4970893;28;20241;-38
2022/12/30 10:16:51;;;;;;;1.30;1.00;;;23.00;47.60;;;;;;4971581;28;20202;-41
2022/12/30 10:19:31;;;;;;;2.33;1.10;;;23.00;47.70;;;;;;4970293;28;20210;-40
2022/12/30 10:22:06;;;;;;;1.63;1.00;;;23.00;47.70;;;;;;4971660;28;20253;-40
2022/12/30 10:24:59;;;;;;;3.00;1.27;;;22.90;47.70;;;;;;4970465;28;20285;-42
2022/12/30 10:27:39;;;;;;;2.08;1.00;;;22.90;47.80;;;;;;4970872;28;20194;-39
2022/12/30 10:30:19;;;;;;;2.15;1.10;;;22.90;47.80;;;;;;4971168;28;20209;-39
2022/12/30 10:32:54;;;;;;;2.20;0.90;;;22.90;47.80;;;;;;4971507;28;20719;-42
2022/12/30 10:35:26;;;;;;;1.42;0.82;;;22.90;47.80;;;;;;4970704;28;20222;-42
2022/12/30 10:38:02;;;;;;;2.60;1.10;;;22.90;47.80;;;;;;4971750;28;20228;-41
2022/12/30 10:40:40;;;;;;;1.95;1.02;;;22.90;47.80;;;;;;4971301;28;20206;-42
2022/12/30 10:43:39;;;;;;;1.77;1.10;;;22.90;47.70;;;;;;4984781;28;20594;-46
2022/12/30 10:46:26;;;;;;;2.70;1.40;;;22.80;47.60;;;;;;4989367;28;20785;-38
2022/12/30 10:49:15;;;;;;;2.10;1.00;;;22.80;47.60;;;;;;4971561;28;20677;-39
2022/12/30 10:51:46;;;;;;;2.42;0.95;;;22.80;47.60;;;;;;4970872;28;20190;-38
2022/12/30 10:54:17;;;;;;;1.42;0.98;;;22.80;47.60;;;;;;4971918;28;20229;-38
2022/12/30 10:56:50;;;;;;;1.90;1.00;;;22.80;47.60;;;;;;4985541;28;20248;-38
2022/12/30 10:59:26;;;;;;;2.03;1.20;;;22.80;47.70;;;;;;4971298;28;20198;-41
2022/12/30 11:02:01;;;;;;;2.72;0.93;;;22.80;47.80;;;;;;4971414;28;20190;-45
2022/12/30 11:04:40;;;;;;;1.52;0.75;;;22.70;47.80;;;;;;4970554;28;20202;-40
2022/12/30 11:07:13;;;;;;;2.08;1.10;;;22.70;47.80;;;;;;4971115;28;20190;-40
2022/12/30 11:09:44;;;;;;;1.65;0.90;;;22.70;47.80;;;;;;4971243;28;20205;-39
2022/12/30 11:15:20;;;;;;;1.70;1.00;;;22.70;47.70;;;;;;4990508;28;20696;-42
2022/12/30 11:17:54;;;;;;;1.30;1.00;;;22.70;47.60;;;;;;4990641;28;20197;-42
2022/12/30 11:20:32;;;;;;;1.73;0.90;;;22.70;47.60;;;;;;4989995;28;20212;-40
2022/12/30 11:23:06;;;;;;;1.92;0.90;;;22.70;47.70;;;;;;4990006;28;20221;-40
2022/12/30 11:25:39;;;;;;;2.00;0.85;;;22.70;47.70;;;;;;4988882;28;20654;-40
2022/12/30 11:28:16;;;;;;;2.28;1.20;;;22.70;47.70;;;;;;4971216;28;20198;-43
2022/12/30 11:30:58;;;;;;;2.08;0.90;;;22.70;47.70;;;;;;4971567;28;20209;-39
2022/12/30 11:33:32;;;;;;;2.40;1.08;;;22.60;47.70;;;;;;4989502;28;20228;-42
2022/12/30 11:36:22;;;;;;;1.90;0.90;;;22.60;47.70;;;;;;4993881;28;20592;-39
2022/12/30 11:38:53;;;;;;;2.15;1.20;;;22.60;47.70;;;;;;4973492;28;20198;-45
2022/12/30 11:41:29;;;;;;;2.65;1.00;;;22.60;47.70;;;;;;4974421;28;20202;-46
2022/12/30 11:44:14;;;;;;;2.05;0.93;;;22.60;47.70;;;;;;4974621;28;20256;-46
2022/12/30 11:46:49;;;;;;;2.03;1.17;;;22.50;47.70;;;;;;4974878;28;20275;-39
2022/12/30 11:49:32;;;;;;;2.70;1.20;;;22.50;47.70;;;;;;4974800;28;20205;-41
2022/12/30 11:52:11;;;;;;;2.75;1.27;;;22.50;47.70;;;;;;4974575;28;20206;-39
2022/12/30 11:54:46;;;;;;;1.88;0.93;;;22.50;47.70;;;;;;4977007;28;20240;-39
2022/12/30 11:57:26;;;;;;;2.10;0.90;;;22.50;47.70;;;;;;4974242;28;20201;-45
2022/12/30 11:59:59;;;;;;;1.42;0.85;;;22.50;47.80;;;;;;4974456;28;20229;-38
2022/12/30 12:02:34;;;;;;;2.00;1.10;;;22.50;47.80;;;;;;4974413;28;20198;-38
2022/12/30 12:05:07;;;;;;;1.35;0.82;;;22.50;47.80;;;;;;4974418;28;20190;-39
2022/12/30 12:07:40;;;;;;;1.88;1.10;;;22.40;47.70;;;;;;4984247;28;20194;-41
2022/12/30 12:10:20;;;;;;;1.45;1.02;;;22.40;48.40;;;;;;4993364;28;20208;-46
2022/12/30 12:12:55;;;;;;;2.30;1.05;;;22.40;47.70;;;;;;4993378;28;20279;-39
2022/12/30 12:15:33;;;;;;;2.53;1.02;;;22.40;47.80;;;;;;4993277;28;20227;-40
2022/12/30 12:18:11;;;;;;;2.42;1.02;;;22.40;47.70;;;;;;4993735;28;20288;-41
2022/12/30 12:20:51;;;;;;;2.20;0.80;;;22.40;47.80;;;;;;4993678;28;20197;-42
2022/12/30 12:23:28;;;;;;;2.58;0.93;;;22.40;47.80;;;;;;4993590;28;20708;-40
2022/12/30 12:26:12;;;;;;;2.20;1.00;;;22.40;47.80;;;;;;4993397;28;20200;-44
2022/12/30 12:28:45;;;;;;;2.38;0.80;;;22.30;47.70;;;;;;4993316;28;20198;-41
2022/12/30 12:32:03;;;;;;;1.75;1.17;;;22.30;47.70;;;;;;4993427;28;20197;-41
2022/12/30 12:34:49;;;;;;;2.42;1.30;;;22.30;47.80;;;;;;4951904;28;20371;-43
2022/12/30 12:37:35;;;;;;;1.70;0.90;;;22.30;47.70;;;;;;4951693;29;20203;-44
2022/12/30 12:41:03;;;;;;;2.08;1.02;;;22.30;47.80;;;;;;4980129;28;20198;-47
2022/12/30 12:43:47;;;;;;;1.83;0.77;;;22.30;47.90;;;;;;4950673;28;20230;-41
2022/12/30 12:46:35;;;;;;;1.58;0.80;;;22.30;47.80;;;;;;4951465;29;20202;-43
2022/12/30 12:49:27;;;;;;;1.38;0.85;;;22.30;47.80;;;;;;4980903;28;20719;-42
2022/12/30 12:52:15;;;;;;;2.00;0.85;;;22.20;47.80;;;;;;4988977;28;20198;-45
2022/12/30 12:55:07;;;;;;;1.75;0.80;;;22.20;47.80;;;;;;4982803;28;21033;-44
2022/12/30 12:57:43;;;;;;;2.17;0.82;;;22.20;47.80;;;;;;4982785;28;20685;-41
2022/12/30 13:00:18;;;;;;;0.90;0.77;;;22.20;47.80;;;;;;4981337;28;20193;-41
2022/12/30 13:03:21;;;;;;;1.38;0.80;;;22.20;47.80;;;;;;4981615;28;20236;-42
2022/12/30 13:06:01;;;;;;;0.82;0.60;;;22.20;47.80;;;;;;4982259;28;20189;-42
2022/12/30 13:08:51;;;;;;;2.40;0.90;;;22.20;47.80;;;;;;4982184;28;20197;-45
2022/12/30 13:11:26;;;;;;;1.83;0.80;;;22.20;47.80;;;;;;4982304;28;20201;-39
2022/12/30 13:14:04;;;;;;;1.50;0.75;;;22.20;47.80;;;;;;4982358;28;20217;-43
2022/12/30 13:16:40;;;;;;;1.60;0.80;;;22.20;47.80;;;;;;4981905;28;20233;-46
2022/12/30 13:19:16;;;;;;;1.38;0.70;;;22.10;47.80;;;;;;4975118;28;20655;-45
2022/12/30 13:21:49;;;;;;;1.83;1.00;;;22.10;47.80;;;;;;4972682;28;20209;-39
2022/12/30 13:24:27;;;;;;;1.52;1.00;;;22.10;47.80;;;;;;4974785;28;20221;-44
2022/12/30 13:26:59;;;;;;;1.55;1.00;;;22.10;47.80;;;;;;4972431;28;20658;-45
2022/12/30 13:29:36;;;;;;;2.55;0.90;;;22.10;47.80;;;;;;4973056;28;20194;-39
2022/12/30 13:32:15;;;;;;;2.50;1.00;;;22.10;48.40;;;;;;4972718;28;20221;-43
2022/12/30 13:34:53;;;;;;;1.85;0.90;;;22.10;47.90;;;;;;4972609;28;20198;-39
2022/12/30 13:37:32;;;;;;;1.17;0.80;;;22.10;47.80;;;;;;4972553;28;20205;-44
2022/12/30 13:40:10;;;;;;;1.17;0.90;;;22.10;47.90;;;;;;4972449;28;20592;-45
2022/12/30 13:43:00;;;;;;;1.83;1.15;;;22.10;47.90;;;;;;4981961;28;20758;-41
2022/12/30 13:45:32;;;;;;;1.13;0.68;;;22.10;47.90;;;;;;4991873;28;20210;-42
2022/12/30 13:48:16;;;;;;;1.80;0.70;;;22.00;47.90;;;;;;4988740;28;20194;-45
2022/12/30 13:50:48;;;;;;;2.20;1.00;;;22.00;47.90;;;;;;4991689;28;20205;-42
2022/12/30 13:53:37;;;;;;;1.10;0.93;;;22.00;47.90;;;;;;5009828;22;20213;-40
2022/12/30 13:56:12;;;;;;;1.75;1.00;;;22.00;47.90;;;;;;5011158;28;20221;-43
2022/12/30 13:58:49;;;;;;;1.02;0.75;;;22.00;47.90;;;;;;5010632;28;20200;-44
2022/12/30 14:01:40;;;;;;;2.80;1.00;;;22.00;47.90;;;;;;4991334;28;20209;-41
2022/12/30 14:04:45;;;;;;;1.95;0.88;;;22.00;47.90;;;;;;4987591;28;20221;-45
2022/12/30 14:07:54;;;;;;;1.35;0.88;;;22.00;47.90;;;;;;4960721;28;20682;-44
2022/12/30 14:10:46;;;;;;;1.17;0.82;;;21.90;47.90;;;;;;4997562;28;20679;-42
2022/12/30 14:13:34;;;;;;;2.35;1.15;;;21.90;47.90;;;;;;5011038;28;20708;-48
2022/12/30 14:16:08;;;;;;;1.30;0.90;;;21.90;47.90;;;;;;5009047;28;20228;-42
2022/12/30 14:18:47;;;;;;;2.60;1.08;;;21.90;48.00;;;;;;5010920;28;20572;-45
2022/12/30 14:21:19;;;;;;;2.55;1.10;;;21.90;48.00;;;;;;5010920;28;20203;-45
2022/12/30 14:23:51;;;;;;;1.95;0.77;;;21.90;48.00;;;;;;5010788;28;20217;-39
2022/12/30 14:26:45;;;;;;;1.73;0.80;;;21.90;48.00;;;;;;5010875;28;20599;-43
2022/12/30 14:29:30;;;;;;;1.13;0.70;;;21.80;48.00;;;;;;5011210;28;20205;-49